Terminal Aerodrome Forecast
Issued by NWS Pittsburgh, PA

Current Version | Previous Version | Graphics & Text | Print | Product List | Glossary On
Versions: 1 2 3 4 5 6 7 8 9 10 11 12 13 14 15 16 17 18 19 20 21 22 23 24 25 26
000
FTUS41 KPBZ 190534
TAFPIT
TAF
KPIT 190534Z 1906/2012 11013KT P6SM VCSH OVC025
      TEMPO 1906/1909 SCT025 BKN100
     FM191200 14011KT P6SM OVC040
     FM191700 17011KT P6SM VCTS OVC060CB
     FM200000 20009KT 6SM -SHRA VCTS OVC060CB=

USA.gov is the U.S. government's official web portal to all federal, state and local government web resources and services.